createdAt,value
2018-10-12T00:01:35.382Z,14.50
2018-10-12T00:06:19.378Z,14.70
2018-10-12T00:11:03.201Z,14.80
2018-10-12T00:15:47.177Z,14.90
2018-10-12T00:20:31.157Z,14.80
2018-10-12T00:25:15.910Z,14.80
2018-10-12T00:29:59.835Z,14.50
2018-10-12T00:34:43.609Z,14.30
2018-10-12T00:39:27.424Z,14.10
2018-10-12T00:44:11.241Z,13.90
2018-10-12T00:48:55.016Z,13.70
2018-10-12T00:53:38.779Z,13.60
2018-10-12T00:58:22.654Z,13.50
2018-10-12T01:03:06.419Z,13.40
2018-10-12T01:07:50.510Z,13.40
2018-10-12T01:12:35.860Z,13.40
2018-10-12T01:17:19.713Z,13.30
2018-10-12T01:22:03.542Z,13.20
2018-10-12T01:26:47.472Z,13.20
2018-10-12T01:31:31.364Z,13.10
2018-10-12T01:36:15.189Z,12.80
2018-10-12T01:40:58.924Z,12.80
2018-10-12T01:45:42.826Z,12.60
2018-10-12T01:50:27.547Z,12.60
2018-10-12T01:55:11.461Z,12.60
2018-10-12T01:59:55.425Z,12.70
2018-10-12T02:04:39.129Z,12.70
2018-10-12T02:09:23.077Z,12.50
2018-10-12T02:14:06.987Z,12.30
2018-10-12T02:18:50.771Z,12.00
2018-10-12T02:23:34.771Z,11.70
2018-10-12T02:28:18.644Z,11.20
2018-10-12T02:33:02.566Z,10.90
2018-10-12T02:37:46.419Z,10.80
2018-10-12T02:42:30.531Z,10.80
2018-10-12T02:47:14.351Z,10.60
2018-10-12T02:51:58.187Z,10.50
2018-10-12T02:56:41.947Z,10.70
2018-10-12T03:01:25.768Z,11.20
2018-10-12T03:06:09.479Z,11.50
2018-10-12T03:10:53.433Z,11.70
2018-10-12T03:15:37.279Z,11.70
2018-10-12T03:20:21.092Z,11.80
2018-10-12T03:25:04.807Z,11.90
2018-10-12T03:29:50.790Z,12.10
2018-10-12T03:34:34.687Z,12.20
2018-10-12T03:39:18.475Z,12.20
2018-10-12T03:44:02.225Z,12.30
2018-10-12T03:48:46.381Z,12.10
2018-10-12T03:53:30.159Z,11.80
2018-10-12T03:58:14.067Z,11.80
2018-10-12T04:02:58.003Z,11.70
2018-10-12T04:07:41.947Z,11.70
2018-10-12T04:12:25.801Z,11.70
2018-10-12T04:17:09.546Z,11.60
2018-10-12T04:21:53.419Z,11.50
2018-10-12T04:26:37.292Z,11.40
2018-10-12T04:31:21.307Z,11.30
2018-10-12T04:36:05.419Z,11.20
2018-10-12T04:41:00.703Z,11.20
2018-10-12T04:45:45.181Z,10.90
2018-10-12T04:50:29.151Z,10.50
2018-10-12T04:55:12.948Z,10.30
2018-10-12T04:59:56.823Z,10.30
2018-10-12T05:04:40.723Z,10.60
2018-10-12T05:09:24.646Z,11.00
2018-10-12T05:14:08.932Z,11.20
2018-10-12T05:18:52.713Z,11.10
2018-10-12T05:23:36.731Z,11.30
2018-10-12T05:28:20.619Z,11.40
2018-10-12T05:33:15.302Z,11.50
2018-10-12T05:37:59.432Z,11.40
2018-10-12T05:42:43.866Z,11.40
2018-10-12T05:47:27.557Z,11.40
2018-10-12T05:52:11.442Z,11.40
2018-10-12T05:56:55.686Z,11.40
2018-10-12T06:01:39.664Z,11.60
2018-10-12T06:06:23.465Z,11.60
2018-10-12T06:11:07.520Z,11.70
2018-10-12T06:15:51.282Z,11.70
2018-10-12T06:20:35.171Z,11.80
2018-10-12T06:25:18.908Z,12.00
2018-10-12T06:30:02.918Z,12.20
2018-10-12T06:34:46.950Z,12.40
2018-10-12T06:39:37.550Z,12.50
2018-10-12T06:44:26.830Z,12.80
2018-10-12T06:49:10.630Z,13.10
2018-10-12T06:53:54.911Z,13.40
2018-10-12T06:58:38.724Z,13.60
2018-10-12T07:03:22.964Z,13.80
2018-10-12T07:08:06.465Z,14.20
2018-10-12T07:12:50.337Z,14.40
2018-10-12T07:17:34.104Z,14.60
2018-10-12T07:22:18.231Z,14.90
2018-10-12T07:27:02.096Z,15.30
2018-10-12T07:31:46.145Z,15.70
2018-10-12T07:36:30.232Z,16.20
2018-10-12T07:41:14.568Z,16.30
2018-10-12T07:45:58.246Z,16.70
2018-10-12T07:50:42.016Z,17.00
2018-10-12T07:55:25.795Z,17.30
2018-10-12T08:00:09.748Z,17.50
2018-10-12T08:04:53.510Z,17.90
2018-10-12T08:09:37.892Z,18.30
2018-10-12T08:14:21.588Z,18.60
2018-10-12T08:19:05.362Z,19.10
2018-10-12T08:23:49.153Z,19.50
2018-10-12T08:28:32.908Z,19.80
2018-10-12T08:33:16.724Z,20.30
2018-10-12T08:38:00.559Z,20.60
2018-10-12T08:42:44.452Z,21.10
2018-10-12T08:47:28.389Z,21.40
2018-10-12T08:52:12.483Z,21.70
2018-10-12T08:56:56.403Z,22.00
2018-10-12T09:01:40.258Z,22.10
2018-10-12T09:06:24.895Z,22.50
2018-10-12T09:11:08.808Z,22.80
2018-10-12T09:15:52.730Z,23.00
2018-10-12T09:20:36.716Z,23.20
2018-10-12T09:25:20.540Z,23.40
2018-10-12T09:30:04.340Z,23.50
2018-10-12T09:34:48.519Z,23.60
2018-10-12T09:39:32.550Z,23.80
2018-10-12T09:44:16.680Z,24.10
2018-10-12T09:49:00.646Z,24.10
2018-10-12T09:53:44.436Z,24.20
2018-10-12T09:58:28.162Z,24.30
2018-10-12T10:03:17.334Z,24.50
2018-10-12T10:08:01.970Z,24.20
2018-10-12T10:12:45.997Z,24.60
2018-10-12T10:17:29.890Z,24.80
2018-10-12T10:22:13.970Z,24.60
2018-10-12T10:26:57.924Z,24.30
2018-10-12T10:31:41.904Z,24.60
2018-10-12T10:36:25.948Z,24.70
2018-10-12T10:41:09.628Z,24.50
2018-10-12T10:45:54.666Z,24.60
2018-10-12T10:50:38.742Z,24.30
2018-10-12T10:55:26.638Z,24.40
2018-10-12T11:00:10.821Z,24.40
2018-10-12T11:04:54.844Z,24.60
2018-10-12T11:09:38.945Z,24.90
2018-10-12T11:14:22.714Z,25.10
2018-10-12T11:19:06.608Z,25.10
2018-10-12T11:23:50.510Z,25.40
2018-10-12T11:28:35.314Z,25.50
2018-10-12T11:33:19.529Z,25.40
2018-10-12T11:38:03.558Z,25.40
2018-10-12T11:42:58.318Z,25.60
2018-10-12T11:47:42.128Z,25.70
2018-10-12T11:52:25.888Z,26.00
2018-10-12T11:57:09.850Z,26.00
2018-10-12T12:01:53.561Z,25.90
2018-10-12T12:06:37.630Z,26.10
2018-10-12T12:11:21.588Z,26.10
2018-10-12T12:16:05.275Z,26.20
2018-10-12T12:20:49.116Z,26.20
2018-10-12T12:25:32.923Z,26.30
2018-10-12T12:30:17.843Z,26.30
2018-10-12T12:35:01.833Z,26.40
2018-10-12T12:39:45.534Z,26.40
2018-10-12T12:44:30.058Z,26.50
2018-10-12T12:49:14.355Z,26.20
2018-10-12T12:53:58.830Z,26.20
2018-10-12T12:58:42.679Z,26.10
2018-10-12T13:03:26.834Z,26.30
2018-10-12T13:08:10.672Z,26.20
2018-10-12T13:12:54.461Z,26.20
2018-10-12T13:17:38.381Z,26.10
2018-10-12T13:22:22.247Z,26.10
2018-10-12T13:27:05.975Z,26.00
2018-10-12T13:31:49.780Z,26.10
2018-10-12T13:36:33.497Z,26.20
2018-10-12T13:41:17.269Z,26.10
2018-10-12T13:46:01.123Z,26.00
2018-10-12T13:50:44.843Z,25.90
2018-10-12T13:55:28.784Z,25.80
2018-10-12T14:00:12.749Z,25.80
2018-10-12T14:04:56.584Z,25.70
2018-10-12T14:09:40.434Z,25.60
2018-10-12T14:14:24.237Z,25.60
2018-10-12T14:19:08.376Z,25.50
2018-10-12T14:23:52.109Z,25.30
2018-10-12T14:28:36.133Z,25.20
2018-10-12T14:33:20.461Z,25.10
2018-10-12T14:38:04.546Z,25.00
2018-10-12T14:42:48.387Z,24.70
2018-10-12T14:47:32.651Z,24.50
2018-10-12T14:52:16.485Z,24.40
2018-10-12T14:57:00.543Z,24.20
2018-10-12T15:01:44.409Z,23.90
2018-10-12T15:06:28.481Z,23.60
2018-10-12T15:11:12.489Z,23.50
2018-10-12T15:15:56.481Z,23.20
2018-10-12T15:20:40.868Z,22.80
2018-10-12T15:25:25.535Z,22.50
2018-10-12T15:30:10.082Z,22.00
2018-10-12T15:34:54.124Z,21.60
2018-10-12T15:39:38.317Z,21.30
2018-10-12T15:44:22.345Z,21.10
2018-10-12T15:49:06.190Z,20.90
2018-10-12T15:53:50.049Z,20.70
2018-10-12T15:58:33.988Z,20.40
2018-10-12T16:03:18.081Z,19.90
2018-10-12T16:08:02.137Z,19.60
2018-10-12T16:12:46.161Z,19.10
2018-10-12T16:17:30.128Z,18.80
2018-10-12T16:22:14.892Z,18.50
2018-10-12T16:26:58.943Z,18.10
2018-10-12T16:31:42.907Z,17.90
2018-10-12T16:36:28.231Z,17.90
2018-10-12T16:41:12.387Z,17.80
2018-10-12T16:45:56.180Z,17.90
2018-10-12T16:50:40.100Z,18.00
2018-10-12T16:55:24.024Z,18.00
2018-10-12T17:00:07.893Z,17.90
2018-10-12T17:04:51.892Z,17.80
2018-10-12T17:09:36.142Z,17.60
2018-10-12T17:14:20.930Z,17.70
2018-10-12T17:19:13.641Z,17.80
2018-10-12T17:23:57.904Z,17.60
2018-10-12T17:28:42.059Z,17.60
2018-10-12T17:33:26.238Z,17.50
2018-10-12T17:38:10.086Z,17.50
2018-10-12T17:42:53.955Z,17.30
2018-10-12T17:47:38.104Z,17.20
2018-10-12T17:52:23.270Z,17.00
2018-10-12T17:57:07.513Z,16.70
2018-10-12T18:01:51.429Z,16.60
2018-10-12T18:06:35.281Z,16.50
2018-10-12T18:11:19.289Z,16.70
2018-10-12T18:16:02.978Z,16.70
2018-10-12T18:20:46.878Z,16.70
2018-10-12T18:25:30.841Z,16.50
2018-10-12T18:30:15.883Z,16.40
2018-10-12T18:35:00.009Z,16.40
2018-10-12T18:39:44.174Z,16.30
2018-10-12T18:44:28.688Z,16.30
2018-10-12T18:49:14.652Z,16.20
2018-10-12T18:53:58.926Z,16.20
2018-10-12T18:58:43.275Z,16.00
2018-10-12T19:03:27.120Z,16.00
2018-10-12T19:08:11.151Z,15.90
2018-10-12T19:12:55.529Z,16.00
2018-10-12T19:17:40.435Z,16.30
2018-10-12T19:22:24.931Z,16.30
2018-10-12T19:27:09.992Z,16.40
2018-10-12T19:31:54.053Z,16.40
2018-10-12T19:36:38.429Z,16.40
2018-10-12T19:41:23.341Z,16.20
2018-10-12T19:46:08.049Z,15.90
2018-10-12T19:50:52.415Z,15.80
2018-10-12T19:55:36.301Z,15.70
2018-10-12T20:00:21.795Z,15.60
2018-10-12T20:05:05.726Z,15.50
2018-10-12T20:09:50.071Z,15.50
2018-10-12T20:14:33.899Z,15.60
2018-10-12T20:19:19.672Z,15.80
2018-10-12T20:24:03.890Z,15.70
2018-10-12T20:28:47.995Z,15.80
2018-10-12T20:33:31.839Z,15.70
2018-10-12T20:38:15.713Z,15.50
2018-10-12T20:43:00.817Z,15.50
2018-10-12T20:47:44.761Z,15.50
2018-10-12T20:52:28.429Z,15.50
2018-10-12T20:57:12.606Z,15.30
2018-10-12T21:01:56.435Z,15.00
2018-10-12T21:06:40.259Z,15.00
2018-10-12T21:11:24.204Z,15.00
2018-10-12T21:16:08.699Z,14.90
2018-10-12T21:20:52.661Z,14.90
2018-10-12T21:25:36.505Z,14.80
2018-10-12T21:30:20.466Z,14.80
2018-10-12T21:35:04.907Z,14.70
2018-10-12T21:39:49.217Z,14.50
2018-10-12T21:44:33.066Z,14.50
2018-10-12T21:49:16.845Z,14.40
2018-10-12T21:54:00.614Z,14.40
2018-10-12T21:58:44.382Z,14.30
2018-10-12T22:03:28.249Z,14.20
2018-10-12T22:08:16.205Z,14.20
2018-10-12T22:12:59.961Z,14.10
2018-10-12T22:17:43.653Z,14.00
2018-10-12T22:22:27.393Z,13.90
2018-10-12T22:27:11.162Z,13.90
2018-10-12T22:31:54.969Z,13.90
2018-10-12T22:36:39.624Z,13.90
2018-10-12T22:41:23.430Z,13.80
2018-10-12T22:46:07.501Z,13.60
2018-10-12T22:50:51.594Z,13.50
2018-10-12T22:55:35.405Z,13.50
2018-10-12T23:00:19.969Z,13.60
2018-10-12T23:05:03.671Z,13.50
2018-10-12T23:09:47.441Z,13.40
2018-10-12T23:14:31.252Z,13.50
2018-10-12T23:19:15.681Z,13.30
2018-10-12T23:23:59.665Z,13.20
2018-10-12T23:28:43.588Z,13.10
2018-10-12T23:33:38.367Z,13.10
2018-10-12T23:38:22.088Z,13.00
2018-10-12T23:43:05.902Z,13.10
2018-10-12T23:47:49.699Z,13.10
2018-10-12T23:52:33.471Z,12.90
2018-10-12T23:57:17.941Z,12.70
